Latest Weather Observations for Hay Point

IDQ60801

Issued at 2:02 am EST Wednesday 10 February 2016 (issued every 30 minutes, with the page automatically refreshed every 10 minutes)

About weather observations | Map of weather stations | Latest weather observations for QLD | Other Formats
Station Details ID: 033317 Name: HAY POINT Lat: -21.29 Lon: 149.30 Height: 7.0 m
Data from the previous 72 hours. | See also: Recent months for locations in Queensland
Date/Time
EST
Temp
°C
App
Temp
°C
Dew
Point
Rel
Hum
%
Delta-T
°C
Wind Press
QNH
hPa
Press
MSL
hPa
Rain
since 9 am
mm
Dir
 
Spd
km/h
Gust
km/h
Spd
kts
Gust
kts
10/02:00am - - - - - SE 44 56 24 30 - - -
10/01:30am - - - - - ESE 44 54 24 29 - - -
10/01:11am - - - - - ESE 44 67 24 36 - - -
10/01:00am - - - - - ESE 44 57 24 31 - - -
10/12:30am - - - - - SE 41 52 22 28 - - -
10/12:00am - - - - - SE 39 52 21 28 - - -
 
Date/Time
EST
Temp
°C
App
Temp
°C
Dew
Point
Rel
Hum
%
Delta-T
°C
Wind Press
QNH
hPa
Press
MSL
hPa
Rain
since 9 am
mm
Dir
 
Spd
km/h
Gust
km/h
Spd
kts
Gust
kts
09/11:30pm - - - - - SE 43 52 23 28 - - -
09/11:00pm - - - - - ESE 43 52 23 28 - - -
09/10:30pm - - - - - SE 39 52 21 28 - - -
09/10:00pm - - - - - SE 39 52 21 28 - - -
09/09:30pm - - - - - SE 39 54 21 29 - - -
09/09:00pm - - - - - ESE 46 56 25 30 - - -
09/08:30pm - - - - - SE 43 54 23 29 - - -
09/08:01pm - - - - - ESE 28 50 15 27 - - -
09/08:00pm - - - - - ESE 26 39 14 21 - - -
09/07:30pm - - - - - E 39 48 21 26 - - -
09/07:00pm - - - - - E 46 56 25 30 - - -
09/06:40pm - - - - - ESE 43 61 23 33 - - -
09/06:30pm - - - - - SE 35 50 19 27 - - -
09/06:23pm - - - - - ESE 43 54 23 29 - - -
09/06:17pm - - - - - ESE 43 56 23 30 - - -
09/06:12pm - - - - - SE 35 56 19 30 - - -
09/06:00pm - - - - - SSE 41 50 22 27 - - -
09/05:30pm - - - - - SE 32 56 17 30 - - -
09/05:28pm - - - - - SSE 28 56 15 30 - - -
09/05:00pm - - - - - S 30 41 16 22 - - -
09/04:30pm - - - - - SE 33 48 18 26 - - -
09/04:00pm - - - - - SE 33 46 18 25 - - -
09/03:30pm - - - - - SE 32 41 17 22 - - -
09/03:00pm - - - - - SE 33 44 18 24 - - -
09/02:30pm - - - - - SSE 35 41 19 22 - - -
09/02:00pm - - - - - SSE 37 44 20 24 - - -
09/01:30pm - - - - - SSE 39 46 21 25 - - -
09/01:00pm - - - - - SSE 30 35 16 19 - - -
09/12:30pm - - - - - SE 35 46 19 25 - - -
09/12:00pm - - - - - SSE 35 46 19 25 - - -
09/11:30am - - - - - SSE 33 41 18 22 - - -
09/11:00am - - - - - SSE 35 44 19 24 - - -
09/10:30am - - - - - SSE 35 46 19 25 - - -
09/10:00am - - - - - SSE 35 44 19 24 - - -
09/09:30am - - - - - SSE 39 48 21 26 - - -
09/09:00am - - - - - SSE 37 44 20 24 - - -
09/08:30am - - - - - SSE 35 44 19 24 - - -
09/08:00am - - - - - SSE 35 48 19 26 - - -
09/07:30am - - - - - SE 39 48 21 26 - - -
09/07:00am - - - - - SE 35 52 19 28 - - -
09/06:30am - - - - - SE 35 48 19 26 - - -
09/06:00am - - - - - SSE 43 54 23 29 - - -
09/05:30am - - - - - SSE 44 56 24 30 - - -
09/05:11am - - - - - SE 37 56 20 30 - - -
09/05:00am - - - - - SE 41 54 22 29 - - -
09/04:43am - - - - - SE 39 57 21 31 - - -
09/04:30am - - - - - SE 39 52 21 28 - - -
09/04:06am - - - - - SE 33 52 18 28 - - -
09/04:00am - - - - - SE 33 46 18 25 - - -
09/03:30am - - - - - SE 37 50 20 27 - - -
09/03:00am - - - - - SE 37 52 20 28 - - -
09/02:30am - - - - - SE 35 46 19 25 - - -
09/02:00am - - - - - SE 39 52 21 28 - - -
09/01:30am - - - - - SE 39 52 21 28 - - -
09/01:00am - - - - - SE 39 50 21 27 - - -
09/12:30am - - - - - SE 39 50 21 27 - - -
09/12:00am - - - - - ESE 44 52 24 28 - - -
 
Date/Time
EST
Temp
°C
App
Temp
°C
Dew
Point
Rel
Hum
%
Delta-T
°C
Wind Press
QNH
hPa
Press
MSL
hPa
Rain
since 9 am
mm
Dir
 
Spd
km/h
Gust
km/h
Spd
kts
Gust
kts
08/11:30pm - - - - - ESE 44 54 24 29 - - -
08/11:00pm - - - - - ESE 43 52 23 28 - - -
08/10:30pm - - - - - ESE 46 56 25 30 - - -
08/10:00pm - - - - - ESE 44 52 24 28 - - -
08/09:30pm - - - - - SE 41 50 22 27 - - -
08/09:00pm - - - - - SE 41 52 22 28 - - -
08/08:30pm - - - - - ESE 41 52 22 28 - - -
08/08:00pm - - - - - SE 39 50 21 27 - - -
08/07:30pm - - - - - SE 35 50 19 27 - - -
08/07:00pm - - - - - SE 37 50 20 27 - - -
08/06:30pm - - - - - SE 35 46 19 25 - - -
08/06:00pm - - - - - SE 37 50 20 27 - - -
08/05:30pm - - - - - SE 35 52 19 28 - - -
08/05:00pm - - - - - SSE 39 50 21 27 - - -
08/04:30pm - - - - - SE 37 52 20 28 - - -
08/04:06pm - - - - - SE 32 52 17 28 - - -
08/04:00pm - - - - - SE 32 39 17 21 - - -
08/03:31pm - - - - - SE 37 56 20 30 - - -
08/03:30pm - - - - - SE 39 56 21 30 - - -
08/03:00pm - - - - - SSE 33 50 18 27 - - -
08/02:59pm - - - - - SSE 32 50 17 27 - - -
08/02:30pm - - - - - SSE 43 52 23 28 - - -
08/02:00pm - - - - - SE 46 54 25 29 - - -
08/01:30pm - - - - - SE 35 48 19 26 - - -
08/01:00pm - - - - - SE 37 52 20 28 - - -
08/12:30pm - - - - - SE 37 50 20 27 - - -
08/12:11pm - - - - - SE 39 52 21 28 - - -
08/12:00pm - - - - - SSE 39 50 21 27 - - -
08/11:30am - - - - - SSE 44 52 24 28 - - -
08/11:00am - - - - - SE 41 52 22 28 - - -
08/10:30am - - - - - SE 41 50 22 27 - - -
08/10:00am - - - - - SSE 46 54 25 29 - - -
08/09:30am - - - - - SSE 39 48 21 26 - - -
08/09:00am - - - - - SSE 44 56 24 30 - - -
08/08:30am - - - - - SE 41 50 22 27 - - -
08/08:00am - - - - - SSE 43 54 23 29 - - -
08/07:30am - - - - - SSE 44 57 24 31 - - -
08/07:22am - - - - - SSE 39 57 21 31 - - -
08/07:00am - - - - - SSE 44 54 24 29 - - -
08/06:30am - - - - - SSE 50 57 27 31 - - -
08/06:00am - - - - - SSE 44 54 24 29 - - -
08/05:30am - - - - - SSE 46 54 25 29 - - -
08/05:00am - - - - - SSE 48 57 26 31 - - -
08/04:30am - - - - - SSE 48 56 26 30 - - -
08/04:00am - - - - - SSE 41 54 22 29 - - -
08/03:30am - - - - - SSE 41 52 22 28 - - -
08/03:00am - - - - - SSE 46 56 25 30 - - -
08/02:30am - - - - - SSE 46 54 25 29 - - -
08/02:00am - - - - - SE 46 59 25 32 - - -
08/01:30am - - - - - SE 48 59 26 32 - - -
08/01:00am - - - - - SE 46 56 25 30 - - -
08/12:30am - - - - - SE 41 54 22 29 - - -
08/12:00am - - - - - SE 41 54 22 29 - - -
 
Date/Time
EST
Temp
°C
App
Temp
°C
Dew
Point
Rel
Hum
%
Delta-T
°C
Wind Press
QNH
hPa
Press
MSL
hPa
Rain
since 9 am
mm
Dir
 
Spd
km/h
Gust
km/h
Spd
kts
Gust
kts
07/11:30pm - - - - - SE 44 57 24 31 - - -
07/11:00pm - - - - - SE 44 54 24 29 - - -
07/10:30pm - - - - - SE 46 57 25 31 - - -
07/10:00pm - - - - - SSE 43 56 23 30 - - -
07/09:30pm - - - - - SE 44 56 24 30 - - -
07/09:00pm - - - - - SE 41 52 22 28 - - -
07/08:30pm - - - - - SSE 46 56 25 30 - - -
07/08:00pm - - - - - SSE 44 54 24 29 - - -
07/07:30pm - - - - - SSE 41 50 22 27 - - -
07/07:00pm - - - - - SSE 39 50 21 27 - - -
07/06:30pm - - - - - SE 39 50 21 27 - - -
07/06:00pm - - - - - SE 37 50 20 27 - - -
07/05:30pm - - - - - SSE 43 50 23 27 - - -
07/05:00pm - - - - - SE 39 54 21 29 - - -
07/04:30pm - - - - - SE 43 56 23 30 - - -
07/04:00pm - - - - - SSE 46 57 25 31 - - -
07/03:30pm - - - - - SSE 50 59 27 32 - - -
07/03:00pm - - - - - SSE 50 59 27 32 - - -
07/02:30pm - - - - - SSE 52 61 28 33 - - -
07/02:00pm - - - - - SSE 50 61 27 33 - - -
07/01:30pm - - - - - SSE 52 59 28 32 - - -
07/01:00pm - - - - - SSE 48 59 26 32 - - -
07/12:30pm - - - - - SSE 52 63 28 34 - - -
07/12:00pm - - - - - SSE 50 59 27 32 - - -
07/11:30am - - - - - SSE 50 59 27 32 - - -
07/11:00am - - - - - SSE 50 61 27 33 - - -
07/10:30am - - - - - SSE 44 57 24 31 - - -
07/10:00am - - - - - SSE 46 59 25 32 - - -
07/09:43am - - - - - S 32 50 17 27 - - -
07/09:30am - - - - - S 32 41 17 22 - - -
07/09:00am - - - - - S 33 43 18 23 - - -
07/08:30am - - - - - S 32 39 17 21 - - -
07/08:00am - - - - - SSE 37 48 20 26 - - -
07/07:30am - - - - - SSE 41 48 22 26 - - -
07/07:00am - - - - - SSE 33 39 18 21 - - -
07/06:30am - - - - - SE 32 39 17 21 - - -
07/06:00am - - - - - SE 35 41 19 22 - - -
07/05:30am - - - - - SSE 33 41 18 22 - - -
07/05:00am - - - - - SE 28 37 15 20 - - -
07/04:30am - - - - - ESE 30 33 16 18 - - -
07/04:00am - - - - - ESE 28 33 15 18 - - -
07/03:30am - - - - - SE 26 35 14 19 - - -
07/03:00am - - - - - SE 24 33 13 18 - - -
07/02:30am - - - - - SE 30 33 16 18 - - -

Other Formats:

Comma delimited format used in spreadsheet applications
http://www.bom.gov.au/fwo/IDQ60801/IDQ60801.99367.axf

JavaScript Object Notation format (JSON) in row-major order
http://www.bom.gov.au/fwo/IDQ60801/IDQ60801.99367.json